sensor_id;sensor_type;location;lat;lon;timestamp;P1;durP1;ratioP1;P2;durP2;ratioP2
12476;SDS011;6303;51.504;6.300;2023-02-01T00:01:31;2.63;;;1.60;;
12476;SDS011;6303;51.504;6.300;2023-02-01T00:03:58;2.45;;;1.70;;
12476;SDS011;6303;51.504;6.300;2023-02-01T00:06:25;2.33;;;1.60;;
12476;SDS011;6303;51.504;6.300;2023-02-01T00:08:52;3.85;;;2.05;;
12476;SDS011;6303;51.504;6.300;2023-02-01T00:11:20;3.22;;;1.60;;
12476;SDS011;6303;51.504;6.300;2023-02-01T00:13:48;2.80;;;1.52;;
12476;SDS011;6303;51.504;6.300;2023-02-01T00:16:17;2.28;;;1.75;;
12476;SDS011;6303;51.504;6.300;2023-02-01T00:18:47;3.10;;;1.80;;
12476;SDS011;6303;51.504;6.300;2023-02-01T00:21:17;3.97;;;1.80;;
12476;SDS011;6303;51.504;6.300;2023-02-01T00:23:48;2.15;;;1.90;;
12476;SDS011;6303;51.504;6.300;2023-02-01T00:26:16;4.15;;;2.20;;
12476;SDS011;6303;51.504;6.300;2023-02-01T00:28:44;3.58;;;2.00;;
12476;SDS011;6303;51.504;6.300;2023-02-01T00:31:11;3.33;;;1.88;;
12476;SDS011;6303;51.504;6.300;2023-02-01T00:33:40;3.38;;;1.83;;
12476;SDS011;6303;51.504;6.300;2023-02-01T00:36:08;1.98;;;1.67;;
12476;SDS011;6303;51.504;6.300;2023-02-01T00:38:36;2.22;;;1.70;;
12476;SDS011;6303;51.504;6.300;2023-02-01T00:41:05;4.20;;;1.90;;
12476;SDS011;6303;51.504;6.300;2023-02-01T00:43:34;2.88;;;1.73;;
12476;SDS011;6303;51.504;6.300;2023-02-01T00:46:01;3.00;;;1.60;;
12476;SDS011;6303;51.504;6.300;2023-02-01T00:48:29;4.88;;;2.05;;
12476;SDS011;6303;51.504;6.300;2023-02-01T00:50:58;3.17;;;1.60;;
12476;SDS011;6303;51.504;6.300;2023-02-01T00:53:27;3.05;;;1.83;;
12476;SDS011;6303;51.504;6.300;2023-02-01T00:55:54;2.55;;;1.90;;
12476;SDS011;6303;51.504;6.300;2023-02-01T00:58:22;3.55;;;1.88;;
12476;SDS011;6303;51.504;6.300;2023-02-01T01:00:59;3.35;;;2.00;;
12476;SDS011;6303;51.504;6.300;2023-02-01T01:03:27;4.03;;;1.95;;
12476;SDS011;6303;51.504;6.300;2023-02-01T01:05:58;3.75;;;1.88;;
12476;SDS011;6303;51.504;6.300;2023-02-01T01:08:27;3.75;;;2.03;;
12476;SDS011;6303;51.504;6.300;2023-02-01T01:10:55;4.05;;;1.70;;
12476;SDS011;6303;51.504;6.300;2023-02-01T01:13:22;3.05;;;1.75;;
12476;SDS011;6303;51.504;6.300;2023-02-01T01:15:50;3.05;;;1.90;;
12476;SDS011;6303;51.504;6.300;2023-02-01T01:18:18;2.85;;;1.88;;
12476;SDS011;6303;51.504;6.300;2023-02-01T01:20:45;2.67;;;1.65;;
12476;SDS011;6303;51.504;6.300;2023-02-01T01:23:13;2.83;;;1.55;;
12476;SDS011;6303;51.504;6.300;2023-02-01T01:25:42;3.58;;;1.85;;
12476;SDS011;6303;51.504;6.300;2023-02-01T01:28:09;3.13;;;1.85;;
12476;SDS011;6303;51.504;6.300;2023-02-01T01:30:36;2.88;;;1.65;;
12476;SDS011;6303;51.504;6.300;2023-02-01T01:33:03;3.10;;;1.67;;
12476;SDS011;6303;51.504;6.300;2023-02-01T01:35:31;3.50;;;1.67;;
12476;SDS011;6303;51.504;6.300;2023-02-01T01:37:59;3.25;;;1.75;;
12476;SDS011;6303;51.504;6.300;2023-02-01T01:40:26;2.42;;;1.50;;
12476;SDS011;6303;51.504;6.300;2023-02-01T01:42:56;2.80;;;1.83;;
12476;SDS011;6303;51.504;6.300;2023-02-01T01:45:24;3.10;;;1.90;;
12476;SDS011;6303;51.504;6.300;2023-02-01T01:47:54;3.95;;;2.50;;
12476;SDS011;6303;51.504;6.300;2023-02-01T01:50:23;2.78;;;1.63;;
12476;SDS011;6303;51.504;6.300;2023-02-01T01:52:57;3.15;;;1.77;;
12476;SDS011;6303;51.504;6.300;2023-02-01T01:55:28;3.17;;;1.90;;
12476;SDS011;6303;51.504;6.300;2023-02-01T01:58:00;2.65;;;1.73;;
12476;SDS011;6303;51.504;6.300;2023-02-01T02:00:31;2.83;;;1.77;;
12476;SDS011;6303;51.504;6.300;2023-02-01T02:02:59;4.53;;;2.00;;
12476;SDS011;6303;51.504;6.300;2023-02-01T02:05:38;2.50;;;1.63;;
12476;SDS011;6303;51.504;6.300;2023-02-01T02:08:07;2.65;;;1.70;;
12476;SDS011;6303;51.504;6.300;2023-02-01T02:10:34;1.98;;;1.58;;
12476;SDS011;6303;51.504;6.300;2023-02-01T02:13:21;4.28;;;2.00;;
12476;SDS011;6303;51.504;6.300;2023-02-01T02:15:50;2.88;;;1.70;;
12476;SDS011;6303;51.504;6.300;2023-02-01T02:18:30;3.38;;;1.60;;
12476;SDS011;6303;51.504;6.300;2023-02-01T02:21:16;2.90;;;1.70;;
12476;SDS011;6303;51.504;6.300;2023-02-01T02:23:58;3.80;;;2.00;;
12476;SDS011;6303;51.504;6.300;2023-02-01T02:26:52;4.13;;;1.80;;
12476;SDS011;6303;51.504;6.300;2023-02-01T02:29:32;3.13;;;1.70;;
12476;SDS011;6303;51.504;6.300;2023-02-01T02:32:22;3.10;;;1.70;;
12476;SDS011;6303;51.504;6.300;2023-02-01T02:35:15;3.35;;;1.58;;
12476;SDS011;6303;51.504;6.300;2023-02-01T02:37:53;4.07;;;1.70;;
12476;SDS011;6303;51.504;6.300;2023-02-01T02:40:27;3.97;;;1.65;;
12476;SDS011;6303;51.504;6.300;2023-02-01T02:43:01;3.22;;;1.55;;
12476;SDS011;6303;51.504;6.300;2023-02-01T02:45:55;3.35;;;1.65;;
12476;SDS011;6303;51.504;6.300;2023-02-01T02:48:46;3.05;;;1.63;;
12476;SDS011;6303;51.504;6.300;2023-02-01T02:51:20;2.97;;;1.70;;
12476;SDS011;6303;51.504;6.300;2023-02-01T02:54:18;2.90;;;1.80;;
12476;SDS011;6303;51.504;6.300;2023-02-01T02:57:07;2.55;;;1.35;;
12476;SDS011;6303;51.504;6.300;2023-02-01T02:59:56;2.92;;;1.75;;
12476;SDS011;6303;51.504;6.300;2023-02-01T03:02:44;2.15;;;1.63;;
12476;SDS011;6303;51.504;6.300;2023-02-01T03:05:32;3.63;;;1.73;;
12476;SDS011;6303;51.504;6.300;2023-02-01T03:08:05;3.53;;;1.73;;
12476;SDS011;6303;51.504;6.300;2023-02-01T03:10:40;2.65;;;1.65;;
12476;SDS011;6303;51.504;6.300;2023-02-01T03:13:15;2.33;;;1.52;;
12476;SDS011;6303;51.504;6.300;2023-02-01T03:15:49;3.03;;;1.70;;
12476;SDS011;6303;51.504;6.300;2023-02-01T03:18:24;2.97;;;1.70;;
12476;SDS011;6303;51.504;6.300;2023-02-01T03:20:57;2.40;;;1.30;;
12476;SDS011;6303;51.504;6.300;2023-02-01T03:23:31;2.90;;;1.77;;
12476;SDS011;6303;51.504;6.300;2023-02-01T03:26:04;2.95;;;1.80;;
12476;SDS011;6303;51.504;6.300;2023-02-01T03:28:34;2.88;;;1.50;;
12476;SDS011;6303;51.504;6.300;2023-02-01T03:31:05;4.93;;;1.92;;
12476;SDS011;6303;51.504;6.300;2023-02-01T03:33:33;1.98;;;1.42;;
12476;SDS011;6303;51.504;6.300;2023-02-01T03:36:03;3.20;;;1.65;;
12476;SDS011;6303;51.504;6.300;2023-02-01T03:38:39;1.83;;;1.38;;
12476;SDS011;6303;51.504;6.300;2023-02-01T03:41:15;2.28;;;1.30;;
12476;SDS011;6303;51.504;6.300;2023-02-01T03:43:49;2.38;;;1.50;;
12476;SDS011;6303;51.504;6.300;2023-02-01T03:46:22;4.75;;;1.50;;
12476;SDS011;6303;51.504;6.300;2023-02-01T03:48:59;4.10;;;1.60;;
12476;SDS011;6303;51.504;6.300;2023-02-01T03:51:29;3.28;;;1.60;;
12476;SDS011;6303;51.504;6.300;2023-02-01T03:54:00;2.83;;;1.83;;
12476;SDS011;6303;51.504;6.300;2023-02-01T03:56:29;3.53;;;1.50;;
12476;SDS011;6303;51.504;6.300;2023-02-01T03:58:57;1.98;;;1.33;;
12476;SDS011;6303;51.504;6.300;2023-02-01T04:01:29;2.35;;;1.38;;
12476;SDS011;6303;51.504;6.300;2023-02-01T04:03:57;2.80;;;1.50;;
12476;SDS011;6303;51.504;6.300;2023-02-01T04:06:25;2.67;;;1.48;;
12476;SDS011;6303;51.504;6.300;2023-02-01T04:08:57;2.78;;;1.45;;
12476;SDS011;6303;51.504;6.300;2023-02-01T04:11:26;3.10;;;1.40;;
12476;SDS011;6303;51.504;6.300;2023-02-01T04:13:54;3.60;;;1.88;;
12476;SDS011;6303;51.504;6.300;2023-02-01T04:16:21;3.45;;;1.45;;
12476;SDS011;6303;51.504;6.300;2023-02-01T04:18:48;3.03;;;1.40;;
12476;SDS011;6303;51.504;6.300;2023-02-01T04:21:15;2.63;;;1.58;;
12476;SDS011;6303;51.504;6.300;2023-02-01T04:23:42;2.22;;;1.42;;
12476;SDS011;6303;51.504;6.300;2023-02-01T04:26:10;3.92;;;1.75;;
12476;SDS011;6303;51.504;6.300;2023-02-01T04:28:37;3.35;;;1.70;;
12476;SDS011;6303;51.504;6.300;2023-02-01T04:31:04;2.70;;;1.30;;
12476;SDS011;6303;51.504;6.300;2023-02-01T04:33:31;4.32;;;1.63;;
12476;SDS011;6303;51.504;6.300;2023-02-01T04:35:58;2.65;;;1.50;;
12476;SDS011;6303;51.504;6.300;2023-02-01T04:38:25;2.75;;;1.48;;
12476;SDS011;6303;51.504;6.300;2023-02-01T04:40:54;4.90;;;2.00;;
12476;SDS011;6303;51.504;6.300;2023-02-01T04:43:22;3.35;;;1.50;;
12476;SDS011;6303;51.504;6.300;2023-02-01T04:45:50;3.53;;;1.60;;
12476;SDS011;6303;51.504;6.300;2023-02-01T04:48:17;3.95;;;1.30;;
12476;SDS011;6303;51.504;6.300;2023-02-01T04:50:45;3.10;;;1.55;;
12476;SDS011;6303;51.504;6.300;2023-02-01T04:53:14;3.60;;;1.70;;
12476;SDS011;6303;51.504;6.300;2023-02-01T04:55:41;2.58;;;1.75;;
12476;SDS011;6303;51.504;6.300;2023-02-01T04:58:09;3.75;;;1.83;;
12476;SDS011;6303;51.504;6.300;2023-02-01T05:00:37;1.92;;;1.52;;
12476;SDS011;6303;51.504;6.300;2023-02-01T05:03:04;2.60;;;1.77;;
12476;SDS011;6303;51.504;6.300;2023-02-01T05:05:31;3.55;;;1.77;;
12476;SDS011;6303;51.504;6.300;2023-02-01T05:07:58;3.58;;;1.42;;
12476;SDS011;6303;51.504;6.300;2023-02-01T05:10:25;3.20;;;1.60;;
12476;SDS011;6303;51.504;6.300;2023-02-01T05:12:52;3.38;;;1.50;;
12476;SDS011;6303;51.504;6.300;2023-02-01T05:15:38;3.33;;;1.63;;
12476;SDS011;6303;51.504;6.300;2023-02-01T05:18:05;2.53;;;1.58;;
12476;SDS011;6303;51.504;6.300;2023-02-01T05:20:32;3.13;;;1.70;;
12476;SDS011;6303;51.504;6.300;2023-02-01T05:23:00;3.58;;;1.65;;
12476;SDS011;6303;51.504;6.300;2023-02-01T05:25:27;2.45;;;1.50;;
12476;SDS011;6303;51.504;6.300;2023-02-01T05:27:54;2.50;;;1.52;;
12476;SDS011;6303;51.504;6.300;2023-02-01T05:30:21;2.80;;;1.40;;
12476;SDS011;6303;51.504;6.300;2023-02-01T05:32:50;1.85;;;1.40;;
12476;SDS011;6303;51.504;6.300;2023-02-01T05:35:17;4.85;;;1.80;;
12476;SDS011;6303;51.504;6.300;2023-02-01T05:37:45;3.08;;;1.60;;
12476;SDS011;6303;51.504;6.300;2023-02-01T05:40:12;3.22;;;1.50;;
12476;SDS011;6303;51.504;6.300;2023-02-01T05:42:39;2.85;;;1.35;;
12476;SDS011;6303;51.504;6.300;2023-02-01T05:45:06;3.13;;;1.67;;
12476;SDS011;6303;51.504;6.300;2023-02-01T05:47:34;2.78;;;1.52;;
12476;SDS011;6303;51.504;6.300;2023-02-01T05:50:03;3.78;;;1.60;;
12476;SDS011;6303;51.504;6.300;2023-02-01T05:52:30;5.65;;;1.55;;
12476;SDS011;6303;51.504;6.300;2023-02-01T05:54:57;2.90;;;1.42;;
12476;SDS011;6303;51.504;6.300;2023-02-01T05:57:25;6.25;;;1.77;;
12476;SDS011;6303;51.504;6.300;2023-02-01T05:59:52;3.78;;;1.58;;
12476;SDS011;6303;51.504;6.300;2023-02-01T06:02:19;3.60;;;1.58;;
12476;SDS011;6303;51.504;6.300;2023-02-01T06:04:46;3.60;;;1.42;;
12476;SDS011;6303;51.504;6.300;2023-02-01T06:07:15;2.72;;;1.40;;
12476;SDS011;6303;51.504;6.300;2023-02-01T06:09:42;3.70;;;1.95;;
12476;SDS011;6303;51.504;6.300;2023-02-01T06:12:09;4.15;;;1.70;;
12476;SDS011;6303;51.504;6.300;2023-02-01T06:14:36;4.63;;;1.60;;
12476;SDS011;6303;51.504;6.300;2023-02-01T06:17:03;7.55;;;1.98;;
12476;SDS011;6303;51.504;6.300;2023-02-01T06:19:32;8.32;;;2.33;;
12476;SDS011;6303;51.504;6.300;2023-02-01T06:22:00;3.50;;;1.67;;
12476;SDS011;6303;51.504;6.300;2023-02-01T06:24:28;5.07;;;1.88;;
12476;SDS011;6303;51.504;6.300;2023-02-01T06:26:55;5.38;;;1.80;;
12476;SDS011;6303;51.504;6.300;2023-02-01T06:29:22;4.60;;;1.90;;
12476;SDS011;6303;51.504;6.300;2023-02-01T06:31:51;5.97;;;1.83;;
12476;SDS011;6303;51.504;6.300;2023-02-01T06:34:18;5.80;;;2.58;;
12476;SDS011;6303;51.504;6.300;2023-02-01T06:36:47;9.07;;;2.28;;
12476;SDS011;6303;51.504;6.300;2023-02-01T06:39:14;6.07;;;2.17;;
12476;SDS011;6303;51.504;6.300;2023-02-01T06:41:44;14.60;;;3.47;;
12476;SDS011;6303;51.504;6.300;2023-02-01T06:44:12;17.83;;;4.32;;
12476;SDS011;6303;51.504;6.300;2023-02-01T06:46:39;12.30;;;3.30;;
12476;SDS011;6303;51.504;6.300;2023-02-01T06:49:06;12.52;;;2.80;;
12476;SDS011;6303;51.504;6.300;2023-02-01T06:51:33;9.65;;;2.63;;
12476;SDS011;6303;51.504;6.300;2023-02-01T06:54:01;6.32;;;2.28;;
12476;SDS011;6303;51.504;6.300;2023-02-01T06:56:28;7.05;;;2.17;;
12476;SDS011;6303;51.504;6.300;2023-02-01T06:58:57;7.50;;;2.47;;
12476;SDS011;6303;51.504;6.300;2023-02-01T07:01:25;7.82;;;2.53;;
12476;SDS011;6303;51.504;6.300;2023-02-01T07:03:52;7.07;;;2.92;;
12476;SDS011;6303;51.504;6.300;2023-02-01T07:06:19;6.88;;;2.20;;
12476;SDS011;6303;51.504;6.300;2023-02-01T07:08:46;6.95;;;1.90;;
12476;SDS011;6303;51.504;6.300;2023-02-01T07:11:14;7.35;;;2.38;;
12476;SDS011;6303;51.504;6.300;2023-02-01T07:13:42;5.65;;;2.45;;
12476;SDS011;6303;51.504;6.300;2023-02-01T07:16:12;8.60;;;2.60;;
12476;SDS011;6303;51.504;6.300;2023-02-01T07:18:40;7.32;;;2.25;;
12476;SDS011;6303;51.504;6.300;2023-02-01T07:21:08;5.18;;;1.95;;
12476;SDS011;6303;51.504;6.300;2023-02-01T07:23:35;6.88;;;2.08;;
12476;SDS011;6303;51.504;6.300;2023-02-01T07:26:04;4.60;;;2.13;;
12476;SDS011;6303;51.504;6.300;2023-02-01T07:28:33;5.93;;;2.20;;
12476;SDS011;6303;51.504;6.300;2023-02-01T07:31:03;5.78;;;2.28;;
12476;SDS011;6303;51.504;6.300;2023-02-01T07:33:32;5.00;;;2.25;;
12476;SDS011;6303;51.504;6.300;2023-02-01T07:36:00;5.40;;;1.90;;
12476;SDS011;6303;51.504;6.300;2023-02-01T07:38:28;4.93;;;1.92;;
12476;SDS011;6303;51.504;6.300;2023-02-01T07:40:56;5.88;;;1.70;;
12476;SDS011;6303;51.504;6.300;2023-02-01T07:43:24;4.20;;;2.13;;
12476;SDS011;6303;51.504;6.300;2023-02-01T07:45:52;5.10;;;2.33;;
12476;SDS011;6303;51.504;6.300;2023-02-01T07:48:19;4.05;;;1.83;;
12476;SDS011;6303;51.504;6.300;2023-02-01T07:50:48;4.55;;;2.03;;
12476;SDS011;6303;51.504;6.300;2023-02-01T07:53:22;4.72;;;2.00;;
12476;SDS011;6303;51.504;6.300;2023-02-01T07:55:50;3.92;;;1.83;;
12476;SDS011;6303;51.504;6.300;2023-02-01T07:58:17;2.90;;;1.70;;
12476;SDS011;6303;51.504;6.300;2023-02-01T08:00:44;3.42;;;1.85;;
12476;SDS011;6303;51.504;6.300;2023-02-01T08:03:28;3.60;;;1.90;;
12476;SDS011;6303;51.504;6.300;2023-02-01T08:05:56;6.50;;;2.00;;
12476;SDS011;6303;51.504;6.300;2023-02-01T08:08:23;4.25;;;1.88;;
12476;SDS011;6303;51.504;6.300;2023-02-01T08:10:51;4.63;;;1.85;;
12476;SDS011;6303;51.504;6.300;2023-02-01T08:13:22;5.30;;;2.05;;
12476;SDS011;6303;51.504;6.300;2023-02-01T08:15:49;3.85;;;2.00;;
12476;SDS011;6303;51.504;6.300;2023-02-01T08:18:16;4.03;;;1.90;;
12476;SDS011;6303;51.504;6.300;2023-02-01T08:20:44;3.20;;;1.88;;
12476;SDS011;6303;51.504;6.300;2023-02-01T08:23:14;4.60;;;1.95;;
12476;SDS011;6303;51.504;6.300;2023-02-01T08:25:41;4.70;;;1.90;;
12476;SDS011;6303;51.504;6.300;2023-02-01T08:28:08;4.00;;;2.08;;
12476;SDS011;6303;51.504;6.300;2023-02-01T08:30:36;3.53;;;1.92;;
12476;SDS011;6303;51.504;6.300;2023-02-01T08:33:03;4.32;;;2.03;;
12476;SDS011;6303;51.504;6.300;2023-02-01T08:35:32;7.07;;;1.90;;
12476;SDS011;6303;51.504;6.300;2023-02-01T08:38:01;4.35;;;1.98;;
12476;SDS011;6303;51.504;6.300;2023-02-01T08:40:29;4.30;;;1.90;;
12476;SDS011;6303;51.504;6.300;2023-02-01T08:42:56;3.85;;;1.90;;
12476;SDS011;6303;51.504;6.300;2023-02-01T08:45:26;3.90;;;1.63;;
12476;SDS011;6303;51.504;6.300;2023-02-01T08:47:55;4.93;;;1.98;;
12476;SDS011;6303;51.504;6.300;2023-02-01T08:50:23;4.30;;;1.70;;
12476;SDS011;6303;51.504;6.300;2023-02-01T08:52:51;5.28;;;1.80;;
12476;SDS011;6303;51.504;6.300;2023-02-01T08:55:18;3.00;;;1.70;;
12476;SDS011;6303;51.504;6.300;2023-02-01T08:57:47;8.50;;;2.20;;
12476;SDS011;6303;51.504;6.300;2023-02-01T09:00:15;4.88;;;2.13;;
12476;SDS011;6303;51.504;6.300;2023-02-01T09:02:43;5.38;;;2.13;;
12476;SDS011;6303;51.504;6.300;2023-02-01T09:05:11;6.22;;;1.98;;
12476;SDS011;6303;51.504;6.300;2023-02-01T09:07:39;5.55;;;2.13;;
12476;SDS011;6303;51.504;6.300;2023-02-01T09:10:06;5.90;;;1.90;;
12476;SDS011;6303;51.504;6.300;2023-02-01T09:12:35;5.32;;;1.92;;
12476;SDS011;6303;51.504;6.300;2023-02-01T09:15:05;5.68;;;2.00;;
12476;SDS011;6303;51.504;6.300;2023-02-01T09:17:33;3.42;;;1.63;;
12476;SDS011;6303;51.504;6.300;2023-02-01T09:20:00;4.07;;;2.03;;
12476;SDS011;6303;51.504;6.300;2023-02-01T09:22:27;4.95;;;1.80;;
12476;SDS011;6303;51.504;6.300;2023-02-01T09:24:54;4.85;;;1.90;;
12476;SDS011;6303;51.504;6.300;2023-02-01T09:27:21;3.50;;;1.88;;
12476;SDS011;6303;51.504;6.300;2023-02-01T09:29:48;5.60;;;1.98;;
12476;SDS011;6303;51.504;6.300;2023-02-01T09:32:19;4.75;;;1.90;;
12476;SDS011;6303;51.504;6.300;2023-02-01T09:34:46;3.92;;;1.95;;
12476;SDS011;6303;51.504;6.300;2023-02-01T09:37:13;2.78;;;1.83;;
12476;SDS011;6303;51.504;6.300;2023-02-01T09:39:40;3.70;;;1.80;;
12476;SDS011;6303;51.504;6.300;2023-02-01T09:42:12;4.05;;;1.88;;
12476;SDS011;6303;51.504;6.300;2023-02-01T09:44:52;4.50;;;1.80;;
12476;SDS011;6303;51.504;6.300;2023-02-01T09:47:32;3.53;;;1.85;;
12476;SDS011;6303;51.504;6.300;2023-02-01T09:50:03;3.20;;;1.58;;
12476;SDS011;6303;51.504;6.300;2023-02-01T09:52:34;5.18;;;1.63;;
12476;SDS011;6303;51.504;6.300;2023-02-01T09:55:07;4.88;;;1.90;;
12476;SDS011;6303;51.504;6.300;2023-02-01T09:57:41;3.92;;;1.80;;
12476;SDS011;6303;51.504;6.300;2023-02-01T10:00:17;3.08;;;1.60;;
12476;SDS011;6303;51.504;6.300;2023-02-01T10:02:50;3.95;;;1.80;;
12476;SDS011;6303;51.504;6.300;2023-02-01T10:05:22;3.83;;;1.58;;
12476;SDS011;6303;51.504;6.300;2023-02-01T10:08:04;3.92;;;1.65;;
12476;SDS011;6303;51.504;6.300;2023-02-01T10:10:39;3.08;;;1.90;;
12476;SDS011;6303;51.504;6.300;2023-02-01T10:13:12;3.80;;;1.80;;
12476;SDS011;6303;51.504;6.300;2023-02-01T10:15:57;3.88;;;2.05;;
12476;SDS011;6303;51.504;6.300;2023-02-01T10:18:51;2.63;;;1.70;;
12476;SDS011;6303;51.504;6.300;2023-02-01T10:21:35;3.90;;;1.77;;
12476;SDS011;6303;51.504;6.300;2023-02-01T10:24:12;3.33;;;1.60;;
12476;SDS011;6303;51.504;6.300;2023-02-01T10:26:50;4.18;;;1.85;;
12476;SDS011;6303;51.504;6.300;2023-02-01T10:29:22;2.53;;;1.50;;
12476;SDS011;6303;51.504;6.300;2023-02-01T10:31:54;4.43;;;1.77;;
12476;SDS011;6303;51.504;6.300;2023-02-01T10:34:24;3.33;;;1.60;;
12476;SDS011;6303;51.504;6.300;2023-02-01T10:36:54;3.55;;;1.50;;
12476;SDS011;6303;51.504;6.300;2023-02-01T10:39:23;3.05;;;1.65;;
12476;SDS011;6303;51.504;6.300;2023-02-01T10:41:50;3.40;;;1.67;;
12476;SDS011;6303;51.504;6.300;2023-02-01T10:44:19;4.32;;;1.70;;
12476;SDS011;6303;51.504;6.300;2023-02-01T10:46:50;4.28;;;1.90;;
12476;SDS011;6303;51.504;6.300;2023-02-01T10:49:18;3.67;;;1.70;;
12476;SDS011;6303;51.504;6.300;2023-02-01T10:51:51;3.65;;;1.70;;
12476;SDS011;6303;51.504;6.300;2023-02-01T10:54:31;5.55;;;1.80;;
12476;SDS011;6303;51.504;6.300;2023-02-01T10:56:59;3.03;;;1.52;;
12476;SDS011;6303;51.504;6.300;2023-02-01T10:59:27;2.08;;;1.40;;
12476;SDS011;6303;51.504;6.300;2023-02-01T11:01:58;4.50;;;2.00;;
12476;SDS011;6303;51.504;6.300;2023-02-01T11:04:26;3.75;;;1.83;;
12476;SDS011;6303;51.504;6.300;2023-02-01T11:07:05;4.38;;;1.67;;
12476;SDS011;6303;51.504;6.300;2023-02-01T11:09:39;4.28;;;1.50;;
12476;SDS011;6303;51.504;6.300;2023-02-01T11:12:20;3.42;;;1.60;;
12476;SDS011;6303;51.504;6.300;2023-02-01T11:15:02;4.43;;;1.52;;
12476;SDS011;6303;51.504;6.300;2023-02-01T11:17:40;3.90;;;1.70;;
12476;SDS011;6303;51.504;6.300;2023-02-01T11:20:13;4.30;;;1.65;;
12476;SDS011;6303;51.504;6.300;2023-02-01T11:22:46;3.53;;;1.50;;
12476;SDS011;6303;51.504;6.300;2023-02-01T11:25:15;2.05;;;1.60;;
12476;SDS011;6303;51.504;6.300;2023-02-01T11:27:44;3.05;;;1.50;;
12476;SDS011;6303;51.504;6.300;2023-02-01T11:30:15;3.33;;;1.90;;
12476;SDS011;6303;51.504;6.300;2023-02-01T11:32:44;2.35;;;1.58;;
12476;SDS011;6303;51.504;6.300;2023-02-01T11:35:15;2.78;;;1.60;;
12476;SDS011;6303;51.504;6.300;2023-02-01T11:37:50;2.75;;;1.33;;
12476;SDS011;6303;51.504;6.300;2023-02-01T11:40:25;2.85;;;1.65;;
12476;SDS011;6303;51.504;6.300;2023-02-01T11:42:54;2.55;;;1.60;;
12476;SDS011;6303;51.504;6.300;2023-02-01T11:45:27;2.83;;;1.65;;
12476;SDS011;6303;51.504;6.300;2023-02-01T11:47:56;3.35;;;1.38;;
12476;SDS011;6303;51.504;6.300;2023-02-01T11:50:29;3.45;;;1.40;;
12476;SDS011;6303;51.504;6.300;2023-02-01T11:53:06;3.00;;;1.63;;
12476;SDS011;6303;51.504;6.300;2023-02-01T11:55:53;5.32;;;1.67;;
12476;SDS011;6303;51.504;6.300;2023-02-01T11:58:29;4.22;;;1.55;;
12476;SDS011;6303;51.504;6.300;2023-02-01T12:01:12;3.70;;;1.42;;
12476;SDS011;6303;51.504;6.300;2023-02-01T12:04:18;4.22;;;1.60;;
12476;SDS011;6303;51.504;6.300;2023-02-01T12:07:17;2.63;;;1.33;;
12476;SDS011;6303;51.504;6.300;2023-02-01T12:09:52;2.58;;;1.50;;
12476;SDS011;6303;51.504;6.300;2023-02-01T12:12:31;2.97;;;1.40;;
12476;SDS011;6303;51.504;6.300;2023-02-01T12:15:14;3.88;;;1.80;;
12476;SDS011;6303;51.504;6.300;2023-02-01T12:18:01;3.30;;;1.70;;
12476;SDS011;6303;51.504;6.300;2023-02-01T12:23:59;3.25;;;1.65;;
12476;SDS011;6303;51.504;6.300;2023-02-01T12:26:46;2.88;;;1.50;;
12476;SDS011;6303;51.504;6.300;2023-02-01T12:29:25;4.93;;;1.55;;
12476;SDS011;6303;51.504;6.300;2023-02-01T12:32:14;2.85;;;1.42;;
12476;SDS011;6303;51.504;6.300;2023-02-01T12:34:58;3.50;;;1.42;;
12476;SDS011;6303;51.504;6.300;2023-02-01T12:37:50;2.25;;;1.45;;
12476;SDS011;6303;51.504;6.300;2023-02-01T12:40:27;2.63;;;1.30;;
12476;SDS011;6303;51.504;6.300;2023-02-01T12:43:03;3.33;;;1.50;;
12476;SDS011;6303;51.504;6.300;2023-02-01T12:45:37;2.20;;;1.10;;
12476;SDS011;6303;51.504;6.300;2023-02-01T12:48:11;2.47;;;1.33;;
12476;SDS011;6303;51.504;6.300;2023-02-01T12:50:50;3.33;;;1.38;;
12476;SDS011;6303;51.504;6.300;2023-02-01T12:53:22;2.80;;;1.38;;
12476;SDS011;6303;51.504;6.300;2023-02-01T12:55:53;3.45;;;1.52;;
12476;SDS011;6303;51.504;6.300;2023-02-01T12:58:24;2.83;;;1.40;;
12476;SDS011;6303;51.504;6.300;2023-02-01T13:00:57;2.95;;;1.27;;
12476;SDS011;6303;51.504;6.300;2023-02-01T13:03:32;3.88;;;1.38;;
12476;SDS011;6303;51.504;6.300;2023-02-01T13:06:05;3.65;;;1.58;;
12476;SDS011;6303;51.504;6.300;2023-02-01T13:08:38;2.22;;;1.42;;
12476;SDS011;6303;51.504;6.300;2023-02-01T13:11:11;2.20;;;1.42;;
12476;SDS011;6303;51.504;6.300;2023-02-01T13:13:48;2.72;;;1.50;;
12476;SDS011;6303;51.504;6.300;2023-02-01T13:16:23;2.22;;;1.33;;
12476;SDS011;6303;51.504;6.300;2023-02-01T13:18:56;3.40;;;1.70;;
12476;SDS011;6303;51.504;6.300;2023-02-01T13:21:31;3.60;;;1.30;;
12476;SDS011;6303;51.504;6.300;2023-02-01T13:24:01;4.97;;;1.50;;
12476;SDS011;6303;51.504;6.300;2023-02-01T13:26:29;3.28;;;1.70;;
12476;SDS011;6303;51.504;6.300;2023-02-01T13:28:58;3.13;;;1.58;;
12476;SDS011;6303;51.504;6.300;2023-02-01T13:31:42;2.72;;;1.65;;
12476;SDS011;6303;51.504;6.300;2023-02-01T13:34:37;2.47;;;1.25;;
12476;SDS011;6303;51.504;6.300;2023-02-01T13:37:36;2.78;;;1.30;;
12476;SDS011;6303;51.504;6.300;2023-02-01T13:40:36;2.83;;;1.60;;
12476;SDS011;6303;51.504;6.300;2023-02-01T13:43:06;2.75;;;1.40;;
12476;SDS011;6303;51.504;6.300;2023-02-01T13:45:44;2.92;;;1.35;;
12476;SDS011;6303;51.504;6.300;2023-02-01T13:48:17;2.67;;;1.40;;
12476;SDS011;6303;51.504;6.300;2023-02-01T13:50:50;2.30;;;1.40;;
12476;SDS011;6303;51.504;6.300;2023-02-01T13:53:23;3.22;;;1.25;;
12476;SDS011;6303;51.504;6.300;2023-02-01T13:55:56;2.67;;;1.23;;
12476;SDS011;6303;51.504;6.300;2023-02-01T13:58:31;3.58;;;1.30;;
12476;SDS011;6303;51.504;6.300;2023-02-01T14:04:06;2.90;;;1.30;;
12476;SDS011;6303;51.504;6.300;2023-02-01T14:06:53;2.92;;;1.50;;
12476;SDS011;6303;51.504;6.300;2023-02-01T14:09:31;3.35;;;1.52;;
12476;SDS011;6303;51.504;6.300;2023-02-01T14:17:49;2.40;;;1.20;;
12476;SDS011;6303;51.504;6.300;2023-02-01T14:23:25;2.03;;;1.33;;
12476;SDS011;6303;51.504;6.300;2023-02-01T14:26:03;2.85;;;1.67;;
12476;SDS011;6303;51.504;6.300;2023-02-01T14:28:34;3.45;;;1.70;;
12476;SDS011;6303;51.504;6.300;2023-02-01T14:31:13;2.38;;;1.38;;
12476;SDS011;6303;51.504;6.300;2023-02-01T14:33:56;3.70;;;1.45;;
12476;SDS011;6303;51.504;6.300;2023-02-01T14:36:26;2.00;;;1.25;;
12476;SDS011;6303;51.504;6.300;2023-02-01T14:39:17;2.40;;;1.38;;
12476;SDS011;6303;51.504;6.300;2023-02-01T14:41:52;3.70;;;2.00;;
12476;SDS011;6303;51.504;6.300;2023-02-01T14:44:23;4.15;;;1.50;;
12476;SDS011;6303;51.504;6.300;2023-02-01T14:53:06;4.20;;;1.58;;
12476;SDS011;6303;51.504;6.300;2023-02-01T14:55:42;3.60;;;1.60;;
12476;SDS011;6303;51.504;6.300;2023-02-01T14:58:16;3.00;;;1.50;;
12476;SDS011;6303;51.504;6.300;2023-02-01T15:00:51;3.03;;;1.58;;
12476;SDS011;6303;51.504;6.300;2023-02-01T15:03:39;3.90;;;1.65;;
12476;SDS011;6303;51.504;6.300;2023-02-01T15:06:16;3.13;;;1.40;;
12476;SDS011;6303;51.504;6.300;2023-02-01T15:08:53;3.38;;;1.38;;
12476;SDS011;6303;51.504;6.300;2023-02-01T15:11:23;4.13;;;1.60;;
12476;SDS011;6303;51.504;6.300;2023-02-01T15:13:50;3.47;;;1.25;;
12476;SDS011;6303;51.504;6.300;2023-02-01T15:16:21;2.60;;;1.30;;
12476;SDS011;6303;51.504;6.300;2023-02-01T15:18:49;3.00;;;1.48;;
12476;SDS011;6303;51.504;6.300;2023-02-01T15:21:18;2.65;;;1.60;;
12476;SDS011;6303;51.504;6.300;2023-02-01T15:23:46;3.33;;;1.60;;
12476;SDS011;6303;51.504;6.300;2023-02-01T15:26:27;4.03;;;1.50;;
12476;SDS011;6303;51.504;6.300;2023-02-01T15:28:56;2.67;;;1.48;;
12476;SDS011;6303;51.504;6.300;2023-02-01T15:31:33;2.47;;;1.55;;
12476;SDS011;6303;51.504;6.300;2023-02-01T15:34:02;2.75;;;1.55;;
12476;SDS011;6303;51.504;6.300;2023-02-01T15:36:29;1.98;;;1.40;;
12476;SDS011;6303;51.504;6.300;2023-02-01T15:39:14;6.00;;;1.70;;
12476;SDS011;6303;51.504;6.300;2023-02-01T15:41:50;2.25;;;1.33;;
12476;SDS011;6303;51.504;6.300;2023-02-01T15:44:21;2.60;;;1.50;;
12476;SDS011;6303;51.504;6.300;2023-02-01T15:46:56;4.20;;;1.67;;
12476;SDS011;6303;51.504;6.300;2023-02-01T15:49:25;6.70;;;1.80;;
12476;SDS011;6303;51.504;6.300;2023-02-01T15:51:54;3.10;;;1.40;;